Time;durP1;ratioP1;P1;durP2;ratioP2;P2;SDS_P1;SDS_P2;PMS_P1;PMS_P2;Temp;Humidity;BMP_temperature;BMP_pressure;BME280_temperature;BME280_humidity;BME280_pressure;Samples;Min_cycle;Max_cycle;Signal;HPM_P1;HPM_P2
2021/07/26 00:01:05;;;;;;;16.98;13.15;;;22.00;88.40;;;;;;5018284;28;20025;-65
2021/07/26 00:03:30;;;;;;;16.60;12.80;;;22.00;88.70;;;;;;5017995;28;20034;-65
2021/07/26 00:05:57;;;;;;;16.77;13.25;;;22.00;89.10;;;;;;5018034;28;20033;-64
2021/07/26 00:08:24;;;;;;;15.93;13.38;;;21.90;89.00;;;;;;5016222;28;20088;-64
2021/07/26 00:11:04;;;;;;;17.52;12.45;;;21.90;88.80;;;;;;5017386;28;20101;-64
2021/07/26 00:13:30;;;;;;;18.17;13.27;;;21.90;88.90;;;;;;5014954;28;20030;-65
2021/07/26 00:15:56;;;;;;;16.73;13.38;;;21.90;88.90;;;;;;5016814;28;20692;-65
2021/07/26 00:18:22;;;;;;;17.02;12.10;;;21.90;89.10;;;;;;5014157;28;20124;-65
2021/07/26 00:20:48;;;;;;;16.15;13.50;;;21.80;89.10;;;;;;5013477;28;20113;-64
2021/07/26 00:23:13;;;;;;;14.35;12.32;;;21.80;89.20;;;;;;5016375;28;20034;-64
2021/07/26 00:25:39;;;;;;;15.40;12.95;;;21.80;89.40;;;;;;5015618;28;20049;-64
2021/07/26 00:28:07;;;;;;;15.00;13.40;;;21.80;89.50;;;;;;5013666;28;20056;-65
2021/07/26 00:30:33;;;;;;;14.95;12.50;;;21.80;89.50;;;;;;5015488;28;20025;-65
2021/07/26 00:32:59;;;;;;;15.48;12.73;;;21.80;89.70;;;;;;5016546;28;20037;-65
2021/07/26 00:35:25;;;;;;;23.25;12.95;;;21.70;89.60;;;;;;5015376;28;20026;-65
2021/07/26 00:37:50;;;;;;;14.48;12.40;;;21.80;89.70;;;;;;5018024;28;20026;-65
2021/07/26 00:40:16;;;;;;;16.33;12.05;;;21.80;89.60;;;;;;5018894;28;20503;-64
2021/07/26 00:42:42;;;;;;;15.70;13.25;;;21.70;89.60;;;;;;5016309;28;20040;-65
2021/07/26 00:45:08;;;;;;;14.95;12.07;;;21.70;89.60;;;;;;5017481;28;20038;-64
2021/07/26 00:47:34;;;;;;;16.17;12.80;;;21.60;89.70;;;;;;5015829;28;20075;-65
2021/07/26 00:50:00;;;;;;;13.93;12.48;;;21.60;90.00;;;;;;5016347;28;20033;-65
2021/07/26 00:52:26;;;;;;;14.80;12.93;;;21.60;90.10;;;;;;5015943;28;20415;-65
2021/07/26 00:54:52;;;;;;;15.93;12.02;;;21.60;90.10;;;;;;5016630;28;20033;-65
2021/07/26 00:57:21;;;;;;;15.10;12.10;;;21.60;90.10;;;;;;5018217;28;20111;-65
2021/07/26 00:59:48;;;;;;;15.07;12.32;;;21.60;90.00;;;;;;5016213;28;20104;-64
2021/07/26 01:02:13;;;;;;;14.38;12.00;;;21.50;90.00;;;;;;5017044;28;20500;-64
2021/07/26 01:04:39;;;;;;;12.40;10.95;;;21.60;90.00;;;;;;5017668;28;20148;-65
2021/07/26 01:07:05;;;;;;;14.45;12.70;;;21.50;90.10;;;;;;5015081;28;20206;-64
2021/07/26 01:09:31;;;;;;;16.40;12.45;;;21.50;90.10;;;;;;5016252;28;20104;-64
2021/07/26 01:11:56;;;;;;;14.02;11.70;;;21.40;90.20;;;;;;5014613;28;20626;-65
2021/07/26 01:14:23;;;;;;;15.55;12.05;;;21.40;90.30;;;;;;5014712;28;20029;-65
2021/07/26 01:16:49;;;;;;;16.35;11.85;;;21.40;90.40;;;;;;5016038;28;20355;-65
2021/07/26 01:19:15;;;;;;;14.52;12.10;;;21.30;90.30;;;;;;5013817;28;20026;-64
2021/07/26 01:21:41;;;;;;;14.85;12.88;;;21.30;90.40;;;;;;5014704;28;20504;-65
2021/07/26 01:24:07;;;;;;;15.75;12.13;;;21.30;90.50;;;;;;5016007;28;20033;-65
2021/07/26 01:26:33;;;;;;;16.35;12.52;;;21.30;90.40;;;;;;5014049;28;20396;-64
2021/07/26 01:29:02;;;;;;;14.88;11.85;;;21.30;90.40;;;;;;5016940;28;20120;-64
2021/07/26 01:31:28;;;;;;;14.00;11.38;;;21.30;90.40;;;;;;5016791;28;20037;-64
2021/07/26 01:33:54;;;;;;;14.32;11.52;;;21.30;90.40;;;;;;5015866;28;20053;-65
2021/07/26 01:36:22;;;;;;;16.48;12.13;;;21.20;90.40;;;;;;5012835;28;20093;-65
2021/07/26 01:38:51;;;;;;;16.70;12.25;;;21.30;90.50;;;;;;5016571;28;20100;-65
2021/07/26 01:41:22;;;;;;;14.38;11.70;;;21.20;90.60;;;;;;5016382;28;20029;-65
2021/07/26 01:44:11;;;;;;;12.88;11.57;;;21.20;90.60;;;;;;5017877;28;20400;-65
2021/07/26 01:46:54;;;;;;;15.90;12.50;;;21.20;90.60;;;;;;5018155;28;20049;-64
2021/07/26 01:49:50;;;;;;;16.20;12.25;;;21.20;90.60;;;;;;5013590;28;20047;-64
2021/07/26 01:52:17;;;;;;;15.00;12.35;;;21.20;90.60;;;;;;5014881;28;20049;-64
2021/07/26 01:54:43;;;;;;;13.93;11.73;;;21.20;90.70;;;;;;5015425;28;20141;-64
2021/07/26 01:57:09;;;;;;;13.68;11.52;;;21.10;90.80;;;;;;5016478;28;20095;-64
2021/07/26 01:59:37;;;;;;;14.75;12.02;;;21.10;90.80;;;;;;5017279;28;20029;-64
2021/07/26 02:02:02;;;;;;;15.68;12.82;;;21.10;90.70;;;;;;5014571;28;20156;-64
2021/07/26 02:04:28;;;;;;;13.27;11.90;;;21.10;90.90;;;;;;5014537;28;20478;-64
2021/07/26 02:06:54;;;;;;;14.70;11.93;;;21.10;90.80;;;;;;5019874;28;20418;-65
2021/07/26 02:09:19;;;;;;;15.88;11.82;;;21.10;90.80;;;;;;5011182;28;20029;-65
2021/07/26 02:11:45;;;;;;;15.20;12.30;;;21.10;90.80;;;;;;5016180;28;20522;-64
2021/07/26 02:14:11;;;;;;;16.58;13.00;;;21.10;90.90;;;;;;5015204;28;20045;-64
2021/07/26 02:16:37;;;;;;;17.80;12.85;;;21.10;90.90;;;;;;5018106;28;20038;-65
2021/07/26 02:19:05;;;;;;;15.73;13.15;;;21.10;90.90;;;;;;5009186;28;20665;-65
2021/07/26 02:21:30;;;;;;;15.93;13.10;;;21.10;91.00;;;;;;5013976;28;20037;-64
2021/07/26 02:23:56;;;;;;;15.90;13.13;;;21.00;91.00;;;;;;5013910;28;20037;-65
2021/07/26 02:26:22;;;;;;;16.58;13.82;;;21.10;91.00;;;;;;5016305;28;20075;-65
2021/07/26 02:28:48;;;;;;;15.95;13.25;;;21.10;91.10;;;;;;5013592;28;20113;-65
2021/07/26 02:31:14;;;;;;;14.10;12.60;;;21.10;91.10;;;;;;5013483;28;20400;-64
2021/07/26 02:33:39;;;;;;;16.60;13.60;;;21.00;91.10;;;;;;5015319;28;20034;-65
2021/07/26 02:36:05;;;;;;;18.63;13.70;;;21.10;91.10;;;;;;5015828;28;20037;-64
2021/07/26 02:38:31;;;;;;;15.45;13.85;;;21.00;91.10;;;;;;5012455;28;20041;-65
2021/07/26 02:40:56;;;;;;;15.38;12.70;;;21.00;91.10;;;;;;5012475;28;20042;-65
2021/07/26 02:43:22;;;;;;;16.10;13.27;;;21.00;91.10;;;;;;5017196;28;20065;-64
2021/07/26 02:45:48;;;;;;;15.68;13.77;;;21.00;91.10;;;;;;5016777;28;20076;-64
2021/07/26 02:48:14;;;;;;;14.95;12.85;;;21.00;91.10;;;;;;5011939;28;20517;-64
2021/07/26 02:50:40;;;;;;;15.57;13.45;;;21.00;91.20;;;;;;5012939;28;20400;-65
2021/07/26 02:53:06;;;;;;;16.33;13.88;;;21.00;91.10;;;;;;5016970;28;20068;-65
2021/07/26 02:55:32;;;;;;;15.45;13.35;;;21.00;91.30;;;;;;5013051;28;20026;-65
2021/07/26 02:57:58;;;;;;;18.85;13.65;;;20.90;91.30;;;;;;5016244;28;20033;-64
2021/07/26 03:00:23;;;;;;;15.85;13.55;;;20.90;91.30;;;;;;5015675;28;20113;-65
2021/07/26 03:02:49;;;;;;;19.08;13.60;;;20.90;91.30;;;;;;5015684;28;20471;-65
2021/07/26 03:05:15;;;;;;;17.45;14.82;;;20.90;91.30;;;;;;5015921;28;20034;-64
2021/07/26 03:07:40;;;;;;;15.35;13.73;;;20.90;91.30;;;;;;5016619;28;20108;-64
2021/07/26 03:10:06;;;;;;;15.45;13.82;;;20.80;91.40;;;;;;5012526;28;20040;-64
2021/07/26 03:12:32;;;;;;;15.63;13.75;;;20.80;91.40;;;;;;5013554;28;20539;-64
2021/07/26 03:14:58;;;;;;;19.17;14.75;;;20.90;91.50;;;;;;5016058;28;20037;-64
2021/07/26 03:17:27;;;;;;;17.20;13.82;;;20.80;91.50;;;;;;5016289;28;20496;-65
2021/07/26 03:19:54;;;;;;;16.40;14.52;;;20.80;91.60;;;;;;5010082;28;20496;-64
2021/07/26 03:23:07;;;;;;;17.00;14.52;;;20.80;91.60;;;;;;5012903;28;20033;-65
2021/07/26 03:25:33;;;;;;;16.73;14.15;;;20.80;91.50;;;;;;5014644;28;20159;-65
2021/07/26 03:28:01;;;;;;;16.95;14.15;;;20.80;91.60;;;;;;5012613;28;20361;-64
2021/07/26 03:30:27;;;;;;;18.30;15.15;;;20.90;91.60;;;;;;5013624;28;20033;-64
2021/07/26 03:32:53;;;;;;;22.83;16.73;;;20.80;91.60;;;;;;5015593;28;20537;-64
2021/07/26 03:35:20;;;;;;;18.27;15.77;;;20.80;91.70;;;;;;5015343;28;20026;-64
2021/07/26 03:37:46;;;;;;;18.40;16.33;;;20.80;91.80;;;;;;5013393;28;20040;-64
2021/07/26 03:40:13;;;;;;;21.95;17.73;;;20.90;91.80;;;;;;5013744;28;20029;-65
2021/07/26 03:42:41;;;;;;;22.35;16.40;;;20.80;92.00;;;;;;5013081;28;20384;-64
2021/07/26 03:45:08;;;;;;;18.48;15.70;;;20.80;91.90;;;;;;5015309;28;20121;-64
2021/07/26 03:47:35;;;;;;;22.13;15.98;;;20.80;91.90;;;;;;5016628;28;20049;-65
2021/07/26 03:50:01;;;;;;;17.58;15.20;;;20.80;91.90;;;;;;5013190;28;20033;-65
2021/07/26 03:52:26;;;;;;;20.23;16.80;;;20.80;91.90;;;;;;5014020;28;20024;-65
2021/07/26 03:54:56;;;;;;;18.77;15.55;;;20.80;91.90;;;;;;5011235;28;20400;-65
2021/07/26 03:57:22;;;;;;;19.98;17.40;;;20.90;92.00;;;;;;5013443;28;20025;-65
2021/07/26 03:59:48;;;;;;;19.67;16.63;;;20.90;92.00;;;;;;5014514;28;20029;-64
2021/07/26 04:02:14;;;;;;;18.60;15.63;;;20.90;92.00;;;;;;5012464;28;20026;-64
2021/07/26 04:04:40;;;;;;;19.05;15.50;;;21.00;91.90;;;;;;5014347;28;20408;-64
2021/07/26 04:07:12;;;;;;;18.77;15.85;;;21.00;91.90;;;;;;5016424;28;20030;-64
2021/07/26 04:09:43;;;;;;;19.15;15.88;;;21.00;91.80;;;;;;5017197;28;20049;-64
2021/07/26 04:12:13;;;;;;;19.17;15.00;;;21.10;91.80;;;;;;5015980;28;20388;-64
2021/07/26 04:14:41;;;;;;;17.65;15.27;;;21.10;91.80;;;;;;5019277;28;20061;-65
2021/07/26 04:17:06;;;;;;;15.90;14.05;;;21.10;91.80;;;;;;5017157;28;20026;-65
2021/07/26 04:19:32;;;;;;;20.60;15.95;;;21.10;91.90;;;;;;5014892;28;20026;-65
2021/07/26 04:21:59;;;;;;;18.13;15.25;;;21.20;91.90;;;;;;5009432;28;20586;-65
2021/07/26 04:24:25;;;;;;;19.48;16.17;;;21.20;91.90;;;;;;5016995;28;20663;-65
2021/07/26 04:26:51;;;;;;;19.77;15.40;;;21.20;91.90;;;;;;5017002;28;20033;-65
2021/07/26 04:29:19;;;;;;;18.50;15.75;;;21.20;91.90;;;;;;5016119;28;20072;-65
2021/07/26 04:31:45;;;;;;;17.38;14.32;;;21.20;91.80;;;;;;5015849;28;20041;-65
2021/07/26 04:34:11;;;;;;;17.63;15.25;;;21.20;91.80;;;;;;5016831;28;20586;-64
2021/07/26 04:36:36;;;;;;;21.05;16.08;;;21.30;91.80;;;;;;5018514;28;20104;-65
2021/07/26 04:39:02;;;;;;;17.70;15.60;;;21.30;91.80;;;;;;5015370;28;20037;-64
2021/07/26 04:41:28;;;;;;;16.95;14.95;;;21.30;91.70;;;;;;5014169;28;20033;-65
2021/07/26 04:43:53;;;;;;;18.50;15.05;;;21.30;91.70;;;;;;5017801;28;20068;-64
2021/07/26 04:46:19;;;;;;;15.90;14.20;;;21.40;91.70;;;;;;5020685;28;20479;-64
2021/07/26 04:48:45;;;;;;;17.40;15.18;;;21.40;91.70;;;;;;5015758;28;20040;-65
2021/07/26 04:51:10;;;;;;;18.38;16.05;;;21.40;91.70;;;;;;5013798;28;20044;-65
2021/07/26 04:53:36;;;;;;;18.20;15.27;;;21.40;91.60;;;;;;5018332;28;20595;-65
2021/07/26 04:56:02;;;;;;;17.50;15.50;;;21.50;91.60;;;;;;5017799;28;20057;-64
2021/07/26 04:58:27;;;;;;;18.17;15.27;;;21.50;91.60;;;;;;5013777;28;20233;-64
2021/07/26 05:00:53;;;;;;;19.27;15.13;;;21.60;91.60;;;;;;5015214;28;20488;-64
2021/07/26 05:03:19;;;;;;;20.10;16.48;;;21.60;91.60;;;;;;5018654;28;20369;-65
2021/07/26 05:05:44;;;;;;;18.40;15.93;;;21.60;91.50;;;;;;5015609;28;20733;-65
2021/07/26 05:08:10;;;;;;;20.58;16.55;;;21.70;91.60;;;;;;5020179;28;20029;-65
2021/07/26 05:10:35;;;;;;;18.55;16.55;;;21.70;91.60;;;;;;5014539;28;20456;-65
2021/07/26 05:13:01;;;;;;;22.25;15.70;;;21.70;91.60;;;;;;5019392;28;20495;-65
2021/07/26 05:15:27;;;;;;;19.13;15.98;;;21.70;91.60;;;;;;5018050;28;20025;-65
2021/07/26 05:17:53;;;;;;;20.15;16.35;;;21.70;91.50;;;;;;5016332;28;20041;-65
2021/07/26 05:20:19;;;;;;;20.08;16.38;;;21.70;91.50;;;;;;5011294;28;20743;-64
2021/07/26 05:22:44;;;;;;;18.58;15.55;;;21.80;91.40;;;;;;5014577;28;20030;-65
2021/07/26 05:25:10;;;;;;;19.92;16.73;;;21.80;91.40;;;;;;5013835;28;20061;-65
2021/07/26 05:27:37;;;;;;;15.57;13.73;;;21.80;91.30;;;;;;5013706;28;20040;-64
2021/07/26 05:30:04;;;;;;;18.55;15.75;;;21.80;91.20;;;;;;5013638;28;20372;-65
2021/07/26 05:32:29;;;;;;;19.02;15.88;;;21.90;91.20;;;;;;5015249;28;20401;-65
2021/07/26 05:34:55;;;;;;;21.30;16.00;;;21.90;91.30;;;;;;5016735;28;20060;-64
2021/07/26 05:37:21;;;;;;;17.95;16.05;;;21.90;91.30;;;;;;5012530;28;20056;-65
2021/07/26 05:39:47;;;;;;;19.48;15.60;;;21.90;91.20;;;;;;5014906;28;20392;-63
2021/07/26 05:42:12;;;;;;;18.60;15.30;;;21.90;90.90;;;;;;5014758;28;20033;-64
2021/07/26 05:44:39;;;;;;;16.52;14.80;;;21.90;90.90;;;;;;5015038;28;20042;-64
2021/07/26 05:47:07;;;;;;;19.25;16.83;;;21.90;90.90;;;;;;5012081;28;20033;-64
2021/07/26 05:49:32;;;;;;;18.90;15.73;;;21.90;90.90;;;;;;5013567;28;20080;-64
2021/07/26 05:51:58;;;;;;;17.83;14.93;;;22.00;90.90;;;;;;5016609;28;20604;-64
2021/07/26 05:54:24;;;;;;;20.70;17.67;;;21.90;90.90;;;;;;5018350;28;20030;-64
2021/07/26 05:56:50;;;;;;;19.60;15.88;;;21.90;91.00;;;;;;5007155;28;20033;-64
2021/07/26 05:59:16;;;;;;;18.52;15.23;;;21.90;91.10;;;;;;5009902;28;20029;-64
2021/07/26 06:01:48;;;;;;;18.83;16.00;;;21.90;91.10;;;;;;5010522;28;20025;-64
2021/07/26 06:04:19;;;;;;;18.83;15.13;;;21.90;91.20;;;;;;5013909;28;20096;-65
2021/07/26 06:06:47;;;;;;;18.02;14.82;;;22.00;91.30;;;;;;5010524;28;20030;-64
2021/07/26 06:09:13;;;;;;;20.52;17.02;;;22.00;91.30;;;;;;5013094;28;20428;-65
2021/07/26 06:11:40;;;;;;;20.20;16.15;;;22.10;91.40;;;;;;5012286;28;20117;-64
2021/07/26 06:14:07;;;;;;;18.77;15.95;;;22.10;91.30;;;;;;5015306;28;20017;-65
2021/07/26 06:16:32;;;;;;;19.00;15.23;;;22.20;91.10;;;;;;5010825;28;20492;-65
2021/07/26 06:19:00;;;;;;;22.70;15.80;;;22.20;91.30;;;;;;5007314;28;20036;-65
2021/07/26 06:21:26;;;;;;;23.95;16.10;;;22.20;91.20;;;;;;5011469;28;20045;-65
2021/07/26 06:23:51;;;;;;;18.92;15.20;;;22.20;91.30;;;;;;5016077;28;20059;-65
2021/07/26 06:26:17;;;;;;;17.35;14.00;;;22.20;91.30;;;;;;5010095;28;20038;-65
2021/07/26 06:28:43;;;;;;;16.92;14.07;;;22.20;91.20;;;;;;5012531;28;20437;-65
2021/07/26 06:31:10;;;;;;;16.30;13.30;;;22.20;91.00;;;;;;5010230;28;20124;-66
2021/07/26 06:33:36;;;;;;;13.68;12.27;;;22.30;90.70;;;;;;5015669;28;20487;-66
2021/07/26 06:36:03;;;;;;;14.60;12.80;;;22.30;90.60;;;;;;5011786;28;20399;-66
2021/07/26 06:38:29;;;;;;;18.00;13.20;;;22.40;90.00;;;;;;5008983;28;20034;-66
2021/07/26 06:40:55;;;;;;;14.18;12.23;;;22.50;90.20;;;;;;5009706;28;20061;-64
2021/07/26 06:43:21;;;;;;;15.57;12.20;;;22.50;90.20;;;;;;5017059;28;20558;-65
2021/07/26 06:45:46;;;;;;;12.02;10.57;;;22.60;90.20;;;;;;5013798;28;20476;-65
2021/07/26 06:48:12;;;;;;;13.93;11.00;;;22.60;89.70;;;;;;5013522;28;20096;-65
2021/07/26 06:50:39;;;;;;;15.27;11.00;;;22.70;89.40;;;;;;5013674;28;20033;-65
2021/07/26 06:53:06;;;;;;;13.32;10.27;;;22.70;89.00;;;;;;5011676;28;20030;-66
2021/07/26 06:55:35;;;;;;;11.13;8.82;;;22.80;88.80;;;;;;5014052;28;20749;-65
2021/07/26 06:58:01;;;;;;;9.50;8.50;;;22.80;87.70;;;;;;5013391;28;20030;-65
2021/07/26 07:00:26;;;;;;;10.63;8.38;;;22.80;87.20;;;;;;5016586;28;20038;-64
2021/07/26 07:02:52;;;;;;;10.35;9.25;;;22.80;86.70;;;;;;5010808;28;20037;-65
2021/07/26 07:05:18;;;;;;;11.90;8.30;;;22.90;86.50;;;;;;5012289;28;20044;-66
2021/07/26 07:07:44;;;;;;;9.50;7.63;;;22.90;86.40;;;;;;5011068;28;20029;-65
2021/07/26 07:10:10;;;;;;;12.02;8.05;;;22.90;86.50;;;;;;5009326;28;20087;-65
2021/07/26 07:12:36;;;;;;;12.30;8.52;;;22.90;86.00;;;;;;5013450;28;20121;-66
2021/07/26 07:15:02;;;;;;;8.98;7.70;;;22.90;86.20;;;;;;5014888;28;20783;-65
2021/07/26 07:17:27;;;;;;;11.10;7.85;;;22.90;85.80;;;;;;5009327;28;20121;-65
2021/07/26 07:19:53;;;;;;;10.82;7.85;;;23.00;85.90;;;;;;5008697;28;20096;-63
2021/07/26 07:22:20;;;;;;;9.98;6.90;;;23.00;85.70;;;;;;5012824;28;20470;-65
2021/07/26 07:24:46;;;;;;;12.35;7.72;;;23.10;84.90;;;;;;5012585;28;20029;-64
2021/07/26 07:27:12;;;;;;;8.90;7.35;;;23.20;84.90;;;;;;5012128;28;20044;-65
2021/07/26 07:29:38;;;;;;;9.15;7.60;;;23.30;84.40;;;;;;5013346;28;20034;-65
2021/07/26 07:32:04;;;;;;;8.00;7.13;;;23.40;84.50;;;;;;5018033;28;20033;-66
2021/07/26 07:34:31;;;;;;;7.80;6.68;;;23.50;83.80;;;;;;5015683;28;20045;-66
2021/07/26 07:36:58;;;;;;;7.97;6.90;;;23.50;83.60;;;;;;5016242;28;20097;-65
2021/07/26 07:39:25;;;;;;;7.88;6.45;;;23.60;83.40;;;;;;5010860;28;20648;-66
2021/07/26 07:41:52;;;;;;;7.10;6.40;;;23.70;82.50;;;;;;5014171;28;20033;-64
2021/07/26 07:44:17;;;;;;;10.18;6.20;;;23.80;82.10;;;;;;5013724;28;20228;-66
2021/07/26 07:46:43;;;;;;;7.03;5.95;;;23.90;81.90;;;;;;5015218;28;20064;-66
2021/07/26 07:49:09;;;;;;;7.68;5.93;;;23.80;81.90;;;;;;5013990;28;20029;-66
2021/07/26 07:51:35;;;;;;;8.65;6.05;;;23.70;81.80;;;;;;5021205;28;20030;-65
2021/07/26 07:54:01;;;;;;;6.82;6.13;;;23.70;81.70;;;;;;5015987;28;20030;-66
2021/07/26 07:56:26;;;;;;;7.90;5.65;;;23.60;82.10;;;;;;5017509;28;20444;-66
2021/07/26 07:58:55;;;;;;;8.77;6.38;;;23.50;82.40;;;;;;5016969;28;20045;-64
2021/07/26 08:01:32;;;;;;;9.23;7.68;;;23.40;82.20;;;;;;5016180;28;20650;-64
2021/07/26 08:03:58;;;;;;;7.85;6.15;;;23.30;82.70;;;;;;5015765;28;20661;-64
2021/07/26 08:06:24;;;;;;;6.53;5.57;;;23.20;83.10;;;;;;5017365;28;20041;-64
2021/07/26 08:08:49;;;;;;;7.05;5.68;;;23.10;83.70;;;;;;5015077;28;20037;-65
2021/07/26 08:11:15;;;;;;;7.53;5.90;;;23.10;84.40;;;;;;5017102;28;20042;-64
2021/07/26 08:13:41;;;;;;;6.35;5.68;;;23.10;84.50;;;;;;5017330;28;20184;-64
2021/07/26 08:16:07;;;;;;;8.13;6.82;;;23.10;84.20;;;;;;5017794;28;20030;-64
2021/07/26 08:18:32;;;;;;;7.40;6.43;;;23.10;84.80;;;;;;5012350;28;20030;-64
2021/07/26 08:20:59;;;;;;;7.75;5.78;;;23.00;84.90;;;;;;5014490;28;20068;-65
2021/07/26 08:23:25;;;;;;;7.88;6.30;;;23.00;85.10;;;;;;5017360;28;20451;-65
2021/07/26 08:25:51;;;;;;;6.85;5.90;;;23.00;85.10;;;;;;5018178;28;20033;-65
2021/07/26 08:28:18;;;;;;;9.32;5.80;;;23.00;85.50;;;;;;5017554;28;20176;-64
2021/07/26 08:30:44;;;;;;;10.38;5.80;;;23.00;85.90;;;;;;5016055;28;20025;-66
2021/07/26 08:33:10;;;;;;;7.82;5.78;;;23.00;86.00;;;;;;5016163;28;20034;-64
2021/07/26 08:35:37;;;;;;;8.13;5.60;;;23.00;85.90;;;;;;5017846;28;20057;-64
2021/07/26 08:38:04;;;;;;;8.90;6.20;;;23.00;86.00;;;;;;5014057;28;20025;-64
2021/07/26 08:40:31;;;;;;;8.88;6.60;;;23.10;86.40;;;;;;5018022;28;20034;-64
2021/07/26 08:43:02;;;;;;;7.85;6.63;;;23.20;85.50;;;;;;5016266;28;20120;-64
2021/07/26 08:45:28;;;;;;;7.70;5.68;;;23.30;85.60;;;;;;5016661;28;20041;-64
2021/07/26 08:47:57;;;;;;;8.55;6.35;;;23.30;85.50;;;;;;5016234;28;20068;-64
2021/07/26 08:50:24;;;;;;;9.70;6.95;;;23.40;85.60;;;;;;5014610;28;20040;-65
2021/07/26 08:52:50;;;;;;;11.90;6.32;;;23.50;85.80;;;;;;5014837;28;20030;-64
2021/07/26 08:55:18;;;;;;;9.95;6.32;;;23.50;85.80;;;;;;5017617;28;20030;-65
2021/07/26 08:57:48;;;;;;;7.65;6.05;;;23.50;85.90;;;;;;5016443;28;20029;-65
2021/07/26 09:00:16;;;;;;;9.53;6.30;;;23.50;86.00;;;;;;5010883;28;20045;-65
2021/07/26 09:02:42;;;;;;;6.80;5.32;;;23.50;86.10;;;;;;5013146;28;20029;-65
2021/07/26 09:05:09;;;;;;;7.45;5.60;;;23.60;85.80;;;;;;5017596;28;20427;-65
2021/07/26 09:07:38;;;;;;;7.63;5.57;;;23.50;85.60;;;;;;5014904;28;20026;-65
2021/07/26 09:10:24;;;;;;;7.45;5.07;;;23.50;84.40;;;;;;5016072;28;20036;-64
2021/07/26 09:12:52;;;;;;;7.70;5.07;;;23.60;84.50;;;;;;5016166;28;20037;-66
2021/07/26 09:15:24;;;;;;;7.25;5.20;;;23.60;84.60;;;;;;5014810;28;20025;-65
2021/07/26 09:17:50;;;;;;;6.30;5.15;;;23.70;83.80;;;;;;5012866;28;20021;-64
2021/07/26 09:20:16;;;;;;;7.18;5.80;;;23.70;83.60;;;;;;5011440;28;20037;-65
2021/07/26 09:22:43;;;;;;;5.93;4.72;;;23.80;82.00;;;;;;5017266;28;20040;-65
2021/07/26 09:25:26;;;;;;;9.15;5.22;;;23.90;82.70;;;;;;5015331;28;20458;-65
2021/07/26 09:27:57;;;;;;;6.68;5.22;;;24.10;81.00;;;;;;5016131;28;20965;-65
2021/07/26 09:30:24;;;;;;;7.82;5.28;;;24.10;81.40;;;;;;5016134;28;20144;-64
2021/07/26 09:32:50;;;;;;;7.88;5.65;;;24.10;80.90;;;;;;5016350;28;20056;-64
2021/07/26 09:35:16;;;;;;;7.10;5.60;;;24.00;80.80;;;;;;5014563;28;20502;-65
2021/07/26 09:37:42;;;;;;;6.57;5.57;;;24.10;81.30;;;;;;5013293;28;20026;-63
2021/07/26 09:40:25;;;;;;;8.90;6.00;;;24.10;81.50;;;;;;5018110;28;20099;-65
2021/07/26 09:42:52;;;;;;;9.70;7.07;;;24.10;82.30;;;;;;5016654;28;20041;-65
2021/07/26 09:45:26;;;;;;;8.65;7.43;;;24.00;83.50;;;;;;5016810;28;20033;-64
2021/07/26 09:48:04;;;;;;;10.63;9.50;;;23.90;84.90;;;;;;5016766;28;20046;-65
2021/07/26 09:50:49;;;;;;;12.70;9.23;;;23.80;85.30;;;;;;5018108;28;20030;-65
2021/07/26 09:53:17;;;;;;;10.77;9.13;;;23.70;85.90;;;;;;5016740;28;20021;-65
2021/07/26 09:55:44;;;;;;;12.80;8.93;;;23.60;86.40;;;;;;5013700;28;20037;-65
2021/07/26 09:58:12;;;;;;;12.25;8.57;;;23.60;86.50;;;;;;5013668;28;20108;-65
2021/07/26 10:00:39;;;;;;;11.00;9.45;;;23.50;87.30;;;;;;5016411;28;20508;-65
2021/07/26 10:03:08;;;;;;;12.32;9.60;;;23.50;88.10;;;;;;5016529;28;20116;-64
2021/07/26 10:05:38;;;;;;;12.10;9.90;;;23.40;88.00;;;;;;5015776;28;20025;-65
2021/07/26 10:08:05;;;;;;;11.73;9.80;;;23.40;88.20;;;;;;5014163;28;20068;-64
2021/07/26 10:10:39;;;;;;;14.63;9.73;;;23.40;88.50;;;;;;5016219;28;20517;-64
2021/07/26 10:13:07;;;;;;;11.95;9.35;;;23.40;88.80;;;;;;5015702;28;20053;-65
2021/07/26 10:15:34;;;;;;;11.95;9.15;;;23.40;88.90;;;;;;5015492;28;20051;-64
2021/07/26 10:18:00;;;;;;;14.70;10.05;;;23.40;88.70;;;;;;5013953;28;20038;-63
2021/07/26 10:20:39;;;;;;;12.75;9.32;;;23.40;88.30;;;;;;5008554;28;20119;-66
2021/07/26 10:23:31;;;;;;;11.98;9.13;;;23.50;87.70;;;;;;5014706;28;20042;-64
2021/07/26 10:26:00;;;;;;;12.02;8.85;;;23.50;87.10;;;;;;5016258;28;20046;-65
2021/07/26 10:28:32;;;;;;;10.25;7.35;;;23.50;87.10;;;;;;5013296;28;20071;-65
2021/07/26 10:30:58;;;;;;;12.18;7.30;;;23.70;86.70;;;;;;5013485;28;20026;-64
2021/07/26 10:33:24;;;;;;;11.38;7.40;;;23.70;86.40;;;;;;5013667;28;20026;-64
2021/07/26 10:35:51;;;;;;;12.32;7.38;;;23.70;86.50;;;;;;5012811;28;20508;-65
2021/07/26 10:38:43;;;;;;;15.77;9.65;;;23.80;86.00;;;;;;5010529;28;20063;-67
2021/07/26 10:41:08;;;;;;;;;;;23.90;85.80;;;;;;5014001;28;20369;-65
2021/07/26 10:44:00;;;;;;;11.40;7.63;;;23.90;85.60;;;;;;5015322;28;19913;-64
2021/07/26 10:46:26;;;;;;;15.80;7.72;;;23.90;85.00;;;;;;5017161;28;20033;-66
2021/07/26 10:48:52;;;;;;;9.98;6.57;;;23.80;85.40;;;;;;5013004;28;20594;-66
2021/07/26 10:51:42;;;;;;;10.38;6.03;;;23.80;85.50;;;;;;5016223;28;20029;-66
2021/07/26 10:54:08;;;;;;;8.32;6.22;;;23.80;84.80;;;;;;5013275;28;20400;-67
2021/07/26 10:57:03;;;;;;;8.13;5.57;;;23.90;85.10;;;;;;5017418;28;20345;-65
2021/07/26 10:59:29;;;;;;;8.15;5.75;;;23.90;85.00;;;;;;5007349;28;20048;-66
2021/07/26 11:02:02;;;;;;;9.88;5.88;;;23.90;84.60;;;;;;5013968;28;20038;-64
2021/07/26 11:04:33;;;;;;;7.47;5.65;;;23.90;84.10;;;;;;5005616;28;20376;-67
2021/07/26 11:07:00;;;;;;;8.15;5.63;;;24.00;84.20;;;;;;5015685;28;20040;-64
2021/07/26 11:09:35;;;;;;;11.00;5.82;;;24.10;84.20;;;;;;5013856;28;20112;-68
2021/07/26 11:12:05;;;;;;;9.07;5.55;;;24.20;84.00;;;;;;5015827;28;20040;-69
2021/07/26 11:14:30;;;;;;;9.40;5.83;;;24.30;82.30;;;;;;5008185;28;20026;-66
2021/07/26 11:17:05;;;;;;;7.07;5.20;;;24.40;82.50;;;;;;5010156;28;20102;-66
2021/07/26 11:19:52;;;;;;;7.13;5.13;;;24.40;82.70;;;;;;5011826;28;20026;-66
2021/07/26 11:22:21;;;;;;;7.18;5.65;;;24.50;82.40;;;;;;5017076;28;20120;-64
2021/07/26 11:24:53;;;;;;;10.85;6.05;;;24.60;82.30;;;;;;5009165;28;20111;-64
2021/07/26 11:27:24;;;;;;;7.65;5.53;;;24.80;81.80;;;;;;5015846;28;20038;-64
2021/07/26 11:29:52;;;;;;;6.20;5.05;;;25.00;81.50;;;;;;5010553;28;20034;-63
2021/07/26 11:32:19;;;;;;;7.90;6.30;;;25.20;80.60;;;;;;5013245;28;20061;-64
2021/07/26 11:34:46;;;;;;;8.23;6.28;;;25.50;80.30;;;;;;5012619;28;20029;-65
2021/07/26 11:37:14;;;;;;;6.43;4.95;;;25.70;79.80;;;;;;5015070;28;20034;-65
2021/07/26 11:40:07;;;;;;;8.63;5.00;;;25.80;78.00;;;;;;5012611;28;20033;-66
2021/07/26 11:42:33;;;;;;;5.40;4.20;;;25.90;76.00;;;;;;5009162;28;20038;-64
2021/07/26 11:45:03;;;;;;;6.60;4.60;;;25.90;75.80;;;;;;5012797;28;20091;-64
2021/07/26 11:47:39;;;;;;;6.57;4.45;;;25.90;76.70;;;;;;5014571;28;20041;-63
2021/07/26 11:50:11;;;;;;;7.18;4.47;;;26.10;76.10;;;;;;5012043;28;20115;-66
2021/07/26 11:52:37;;;;;;;5.85;3.97;;;26.20;75.90;;;;;;5011264;28;20018;-65
2021/07/26 11:55:13;;;;;;;5.75;4.15;;;26.50;75.90;;;;;;5012299;28;20026;-66
2021/07/26 11:57:58;;;;;;;6.18;3.97;;;26.90;75.70;;;;;;5010390;28;20057;-64
2021/07/26 12:00:26;;;;;;;6.65;3.60;;;27.40;73.90;;;;;;5019164;28;20080;-65
2021/07/26 12:02:52;;;;;;;5.25;3.28;;;28.20;67.60;;;;;;5014323;28;20061;-65
2021/07/26 12:05:26;;;;;;;5.15;3.50;;;29.20;64.50;;;;;;5018519;28;20459;-65
2021/07/26 12:07:52;;;;;;;4.22;3.20;;;30.20;64.10;;;;;;5017092;28;20099;-64
2021/07/26 12:10:37;;;;;;;15.20;13.00;;;31.70;59.00;;;;;;5022198;28;20468;-65
2021/07/26 12:13:14;;;;;;;30.67;25.00;;;33.30;55.80;;;;;;5021805;28;20051;-65
2021/07/26 12:15:41;;;;;;;7.50;6.70;;;34.70;52.10;;;;;;5018110;28;20064;-66
2021/07/26 12:18:09;;;;;;;4.72;4.32;;;35.60;48.90;;;;;;5015056;28;20080;-64
2021/07/26 12:20:40;;;;;;;4.63;3.80;;;36.30;46.60;;;;;;5014214;28;20156;-66
2021/07/26 12:23:17;;;;;;;5.60;3.72;;;37.00;44.00;;;;;;5013096;28;20029;-65
2021/07/26 12:25:43;;;;;;;6.57;4.10;;;37.80;40.60;;;;;;5015271;28;20033;-66
2021/07/26 12:28:09;;;;;;;4.65;3.65;;;37.70;41.20;;;;;;5010462;28;20549;-65
2021/07/26 12:30:40;;;;;;;5.55;3.88;;;37.50;41.70;;;;;;5013250;28;20400;-66
2021/07/26 12:33:06;;;;;;;5.47;4.45;;;37.20;42.30;;;;;;5018056;28;20030;-66
2021/07/26 12:35:34;;;;;;;6.15;4.57;;;36.70;40.30;;;;;;5018762;28;20065;-65
2021/07/26 12:38:04;;;;;;;5.15;3.97;;;36.00;42.40;;;;;;5015566;28;20030;-66
2021/07/26 12:40:32;;;;;;;6.85;4.63;;;35.70;44.40;;;;;;5021267;28;20029;-66